Terminal Aerodrome Forecast
Issued by NWS

Home | Current Version | Previous Version | Text Only | Print | Product List | Glossary On
Versions: 1 2 3 4 5 6 7 8 9 10 11 12 13 14 15 16 17 18
000
FTUS41 KGYX 230520
TAFLEB
TAF
KLEB 230520Z 2306/2406 VRB03KT P6SM SCT050 BKN250
     FM230800 00000KT P6SM SCT040 BKN080
     FM231300 18004KT P6SM BKN120
     FM231700 20012G18KT P6SM VCSH BKN060 PROB30 2317/2323 2SM TSRA
      OVC040CB
     FM240100 21008KT 4SM BR OVC012=

USA.gov is the U.S. government's official web portal to all federal, state and local government web resources and services.